Time;durP1;ratioP1;P1;durP2;ratioP2;P2;SDS_P1;SDS_P2;PMS_P1;PMS_P2;Temp;Humidity;BMP_temperature;BMP_pressure;BME280_temperature;BME280_humidity;BME280_pressure;Samples;Min_cycle;Max_cycle;Signal;HPM_P1;HPM_P2
2022/07/17 00:00:42;;;;;;;0.30;0.30;;;;;;;30.30;22.87;98809.63;5045463;28;20021;-77
2022/07/17 00:03:14;;;;;;;0.30;0.30;;;;;;;30.20;22.67;98811.59;5042935;28;20039;-77
2022/07/17 00:05:41;;;;;;;0.30;0.22;;;;;;;30.04;22.97;98814.59;5043913;28;20048;-77
2022/07/17 00:08:09;;;;;;;0.20;0.20;;;;;;;30.00;22.81;98816.75;5041537;28;20032;-77
2022/07/17 00:10:36;;;;;;;0.50;0.45;;;;;;;30.17;22.67;98821.03;5047904;28;20065;-76
2022/07/17 00:13:03;;;;;;;0.20;0.20;;;;;;;30.22;22.81;98823.28;5041312;28;20029;-76
2022/07/17 00:15:29;;;;;;;0.60;0.35;;;;;;;30.24;22.52;98817.94;5043047;28;20048;-76
2022/07/17 00:17:55;;;;;;;0.47;0.40;;;;;;;30.22;22.73;98816.81;5042432;28;20029;-77
2022/07/17 00:20:24;;;;;;;0.68;0.30;;;;;;;30.23;22.65;98822.00;5043695;28;20029;-76
2022/07/17 00:22:51;;;;;;;0.22;0.20;;;;;;;30.12;22.98;98821.59;5046590;28;20037;-76
2022/07/17 00:25:17;;;;;;;0.32;0.30;;;;;;;30.07;22.97;98830.69;5041210;28;20103;-76
2022/07/17 00:27:44;;;;;;;0.30;0.30;;;;;;;30.11;22.87;98825.69;5045425;28;20474;-77
2022/07/17 00:30:10;;;;;;;0.65;0.30;;;;;;;30.15;22.20;98834.88;5041963;28;20021;-77
2022/07/17 00:32:37;;;;;;;0.40;0.30;;;;;;;30.22;22.48;98836.66;5044897;28;20037;-77
2022/07/17 00:35:03;;;;;;;0.38;0.35;;;;;;;30.30;21.86;98827.44;5042448;28;20037;-77
2022/07/17 00:37:29;;;;;;;0.50;0.38;;;;;;;30.03;22.21;98830.00;5044543;28;20041;-77
2022/07/17 00:39:55;;;;;;;0.32;0.30;;;;;;;29.97;22.51;98832.63;5043245;28;20029;-77
2022/07/17 00:42:21;;;;;;;0.40;0.30;;;;;;;29.96;22.21;98841.59;5043038;28;20112;-79
2022/07/17 00:44:47;;;;;;;0.43;0.35;;;;;;;30.07;22.58;98839.97;5045711;28;20029;-80
2022/07/17 00:47:16;;;;;;;0.30;0.30;;;;;;;30.11;22.20;98837.00;5045204;28;20045;-80
2022/07/17 00:49:43;;;;;;;0.28;0.25;;;;;;;30.19;21.87;98843.22;5039617;28;20037;-80
2022/07/17 00:52:10;;;;;;;0.50;0.50;;;;;;;30.11;22.44;98839.06;5031525;28;20065;-79
2022/07/17 00:54:38;;;;;;;0.30;0.30;;;;;;;29.89;22.49;98839.78;5028668;28;20040;-79
2022/07/17 00:57:10;;;;;;;0.38;0.20;;;;;;;29.88;22.56;98843.06;5028112;28;20044;-79
2022/07/17 00:59:37;;;;;;;0.45;0.35;;;;;;;30.00;22.49;98848.72;5033865;28;20497;-79
2022/07/17 01:02:11;;;;;;;0.40;0.40;;;;;;;30.03;22.16;98853.47;5030920;28;20045;-79
2022/07/17 01:04:38;;;;;;;1.65;0.30;;;;;;;29.82;22.06;98842.06;5029457;28;20028;-79
2022/07/17 01:07:06;;;;;;;0.20;0.20;;;;;;;29.43;22.12;98838.44;5028460;28;20439;-79
2022/07/17 01:09:33;;;;;;;0.50;0.40;;;;;;;29.41;22.46;98845.78;5029944;28;20036;-80
2022/07/17 01:12:00;;;;;;;0.38;0.30;;;;;;;29.55;22.33;98847.34;5031316;28;20040;-79
2022/07/17 01:14:27;;;;;;;0.95;0.40;;;;;;;29.47;22.60;98846.03;5031176;28;20048;-79
2022/07/17 01:16:54;;;;;;;1.48;0.30;;;;;;;29.51;22.52;98835.38;5034685;28;20033;-79
2022/07/17 01:19:21;;;;;;;0.93;0.40;;;;;;;29.60;22.47;98846.78;5030079;28;20575;-79
2022/07/17 01:21:49;;;;;;;0.30;0.30;;;;;;;29.72;22.39;98849.63;5031605;28;20028;-79
2022/07/17 01:24:17;;;;;;;0.25;0.25;;;;;;;29.61;22.64;98843.53;5030011;28;20131;-79
2022/07/17 01:26:44;;;;;;;0.65;0.30;;;;;;;29.52;22.75;98840.59;5039587;28;20029;-79
2022/07/17 01:29:12;;;;;;;0.20;0.20;;;;;;;29.57;22.78;98837.16;5040054;28;20560;-79
2022/07/17 01:31:42;;;;;;;1.00;0.22;;;;;;;29.50;22.37;98839.47;5044218;28;20036;-79
2022/07/17 01:34:09;;;;;;;0.40;0.40;;;;;;;29.61;22.73;98840.69;5043466;28;20033;-79
2022/07/17 01:36:36;;;;;;;0.30;0.30;;;;;;;29.58;22.42;98844.44;5044054;28;20029;-79
2022/07/17 01:39:04;;;;;;;0.32;0.30;;;;;;;29.68;22.01;98851.78;5039574;28;20043;-79
2022/07/17 01:41:30;;;;;;;0.38;0.30;;;;;;;29.77;22.10;98843.44;5042833;28;20021;-79
2022/07/17 01:43:57;;;;;;;0.77;0.47;;;;;;;29.79;21.86;98842.97;5045371;28;20033;-77
2022/07/17 01:46:23;;;;;;;0.30;0.30;;;;;;;29.57;22.70;98856.97;5040969;28;21292;-77
2022/07/17 01:48:49;;;;;;;0.30;0.30;;;;;;;29.50;22.34;98850.78;5046425;28;20025;-77
2022/07/17 01:51:15;;;;;;;0.32;0.32;;;;;;;29.51;22.55;98849.53;5039406;28;20619;-77
2022/07/17 01:53:42;;;;;;;0.52;0.28;;;;;;;29.47;22.61;98851.69;5047043;28;20033;-76
2022/07/17 01:56:08;;;;;;;0.85;0.30;;;;;;;29.38;22.74;98847.47;5043644;28;20048;-76
2022/07/17 01:58:34;;;;;;;0.75;0.32;;;;;;;29.33;22.90;98848.06;5044199;28;20200;-76
2022/07/17 02:01:01;;;;;;;0.30;0.30;;;;;;;29.37;22.85;98845.09;5043466;28;20041;-77
2022/07/17 02:03:27;;;;;;;0.30;0.30;;;;;;;29.45;22.87;98848.50;5043416;28;20075;-77
2022/07/17 02:05:53;;;;;;;0.40;0.40;;;;;;;29.38;23.11;98855.19;5044795;28;20546;-76
2022/07/17 02:08:20;;;;;;;0.60;0.30;;;;;;;29.46;23.04;98838.75;5044867;28;20171;-77
2022/07/17 02:10:46;;;;;;;0.40;0.40;;;;;;;29.33;23.06;98844.44;5047504;28;20377;-77
2022/07/17 02:13:12;;;;;;;0.45;0.40;;;;;;;29.37;23.44;98854.38;5041805;28;22070;-77
2022/07/17 02:15:39;;;;;;;0.30;0.30;;;;;;;29.46;23.21;98850.06;5044128;28;20040;-77
2022/07/17 02:18:06;;;;;;;0.63;0.30;;;;;;;29.34;23.17;98858.13;5042164;28;20040;-76
2022/07/17 02:20:32;;;;;;;0.60;0.60;;;;;;;29.27;23.15;98841.38;5044732;28;20091;-76
2022/07/17 02:22:58;;;;;;;0.32;0.32;;;;;;;29.17;23.40;98850.94;5036981;28;20044;-76
2022/07/17 02:25:24;;;;;;;0.40;0.40;;;;;;;28.94;23.76;98847.63;5045171;28;20024;-77
2022/07/17 02:27:51;;;;;;;0.40;0.40;;;;;;;29.06;22.95;98849.66;5045389;28;20037;-76
2022/07/17 02:30:18;;;;;;;0.85;0.50;;;;;;;29.18;23.23;98849.72;5043240;28;20065;-76
2022/07/17 02:32:45;;;;;;;0.40;0.40;;;;;;;29.27;22.64;98837.72;5045994;28;20082;-76
2022/07/17 02:35:12;;;;;;;0.22;0.22;;;;;;;29.17;23.02;98845.28;5043943;28;20044;-76
2022/07/17 02:37:39;;;;;;;0.30;0.30;;;;;;;29.20;22.80;98843.63;5043199;28;20510;-76
2022/07/17 02:40:07;;;;;;;0.40;0.40;;;;;;;29.34;22.85;98843.97;5040046;28;20033;-76
2022/07/17 02:42:33;;;;;;;0.75;0.68;;;;;;;29.35;22.78;98844.78;5041277;28;20045;-76
2022/07/17 02:44:59;;;;;;;0.43;0.43;;;;;;;29.33;22.79;98845.22;5040135;28;20044;-76
2022/07/17 02:47:28;;;;;;;0.38;0.30;;;;;;;29.26;23.22;98839.00;5036880;28;20045;-76
2022/07/17 02:49:54;;;;;;;0.50;0.40;;;;;;;29.04;23.70;98841.66;5040052;28;20075;-76
2022/07/17 02:52:21;;;;;;;2.88;0.60;;;;;;;29.01;23.78;98838.94;5038300;28;20053;-76
2022/07/17 02:54:47;;;;;;;0.80;0.60;;;;;;;29.10;23.53;98851.16;5042279;28;20060;-79
2022/07/17 02:57:14;;;;;;;0.73;0.30;;;;;;;29.25;23.37;98852.34;5037375;28;20516;-77
2022/07/17 02:59:40;;;;;;;0.75;0.30;;;;;;;29.29;23.50;98850.19;5032625;28;20033;-76
2022/07/17 03:02:06;;;;;;;0.60;0.50;;;;;;;29.31;23.57;98852.59;5043117;28;20032;-76
2022/07/17 03:04:33;;;;;;;0.55;0.55;;;;;;;29.27;23.30;98858.34;5045477;28;20090;-76
2022/07/17 03:06:59;;;;;;;0.30;0.30;;;;;;;29.22;22.83;98861.72;5043782;28;20025;-76
2022/07/17 03:09:26;;;;;;;0.60;0.50;;;;;;;29.22;22.25;98864.53;5046169;28;20152;-76
2022/07/17 03:11:52;;;;;;;1.25;0.32;;;;;;;29.18;22.34;98866.69;5045354;28;20512;-75
2022/07/17 03:14:18;;;;;;;0.43;0.20;;;;;;;29.15;22.42;98861.13;5046287;28;20065;-76
2022/07/17 03:16:44;;;;;;;0.98;0.40;;;;;;;28.69;22.86;98865.28;5046994;28;20029;-75
2022/07/17 03:19:10;;;;;;;0.68;0.57;;;;;;;28.88;23.29;98872.03;5046623;28;20068;-76
2022/07/17 03:21:36;;;;;;;0.50;0.40;;;;;;;29.21;22.84;98871.47;5050640;28;20064;-76
2022/07/17 03:24:03;;;;;;;0.35;0.35;;;;;;;29.08;22.88;98867.00;5051430;28;20040;-76
2022/07/17 03:26:29;;;;;;;0.45;0.32;;;;;;;28.74;23.52;98870.41;5051924;28;20409;-76
2022/07/17 03:28:56;;;;;;;0.40;0.40;;;;;;;29.03;23.03;98864.72;5048282;28;20033;-76
2022/07/17 03:31:22;;;;;;;0.38;0.38;;;;;;;29.23;22.65;98871.00;5050648;28;20040;-76
2022/07/17 03:33:48;;;;;;;0.85;0.52;;;;;;;29.43;22.89;98880.88;5052000;28;20041;-76
2022/07/17 03:36:14;;;;;;;0.70;0.40;;;;;;;29.44;23.50;98878.84;5046527;28;20056;-76
2022/07/17 03:38:40;;;;;;;0.45;0.30;;;;;;;29.59;22.65;98882.03;5049966;28;20486;-76
2022/07/17 03:41:06;;;;;;;0.47;0.47;;;;;;;29.67;23.66;98884.16;5050361;28;20029;-77
2022/07/17 03:43:32;;;;;;;0.88;0.50;;;;;;;30.02;23.82;98883.03;5051020;28;20033;-77
2022/07/17 03:45:58;;;;;;;1.05;0.57;;;;;;;30.77;23.32;98895.41;5049911;28;20388;-77
2022/07/17 03:48:24;;;;;;;1.17;0.40;;;;;;;31.22;22.42;98877.94;5049108;28;20064;-76
2022/07/17 03:50:50;;;;;;;0.50;0.47;;;;;;;31.47;22.83;98894.03;5050480;28;20061;-77
2022/07/17 03:53:17;;;;;;;1.05;0.43;;;;;;;31.52;22.78;98899.91;5046996;28;20033;-77
2022/07/17 03:55:43;;;;;;;0.95;0.40;;;;;;;31.57;22.38;98890.00;5043582;28;20033;-77
2022/07/17 03:58:09;;;;;;;0.40;0.40;;;;;;;31.77;23.11;98896.84;5052777;28;20041;-77
2022/07/17 04:00:35;;;;;;;1.50;0.50;;;;;;;32.12;22.44;98888.94;5049094;28;20052;-77
2022/07/17 04:03:01;;;;;;;2.53;0.40;;;;;;;32.39;22.76;98899.59;5042858;28;20045;-77
2022/07/17 04:05:27;;;;;;;1.13;0.55;;;;;;;32.70;22.28;98897.41;5040606;28;20029;-77
2022/07/17 04:07:53;;;;;;;0.30;0.30;;;;;;;32.96;22.38;98897.88;5047991;28;20037;-77
2022/07/17 04:10:19;;;;;;;0.52;0.45;;;;;;;32.96;22.20;98900.72;5035991;28;20076;-77
2022/07/17 04:12:45;;;;;;;0.30;0.22;;;;;;;32.96;21.95;98898.66;5047356;28;20064;-77
2022/07/17 04:15:11;;;;;;;0.88;0.43;;;;;;;32.94;21.84;98906.09;5043606;28;20053;-77
2022/07/17 04:17:38;;;;;;;1.20;0.50;;;;;;;33.14;22.77;98906.44;5054403;28;20036;-77
2022/07/17 04:20:04;;;;;;;3.05;0.63;;;;;;;33.29;22.41;98913.84;5054328;28;20370;-77
2022/07/17 04:22:30;;;;;;;1.15;0.40;;;;;;;33.70;22.37;98905.84;5055277;28;20079;-77
2022/07/17 04:24:56;;;;;;;0.55;0.40;;;;;;;33.96;22.17;98906.97;5055446;28;20481;-77
2022/07/17 04:27:23;;;;;;;0.40;0.40;;;;;;;34.17;21.75;98911.63;5055367;28;20044;-77
2022/07/17 04:29:49;;;;;;;0.68;0.40;;;;;;;33.92;21.03;98914.91;5052071;28;20552;-77
2022/07/17 04:32:15;;;;;;;1.02;0.47;;;;;;;33.93;21.46;98920.16;5054671;28;20044;-77
2022/07/17 04:34:41;;;;;;;0.93;0.50;;;;;;;33.88;21.51;98917.16;5051664;28;20033;-77
2022/07/17 04:37:07;;;;;;;0.70;0.43;;;;;;;34.12;22.06;98920.09;5055381;28;20513;-77
2022/07/17 04:39:33;;;;;;;1.05;0.40;;;;;;;34.19;21.24;98926.22;5054799;28;20033;-77
2022/07/17 04:41:59;;;;;;;1.83;0.50;;;;;;;33.95;21.51;98928.22;5055411;28;20033;-78
2022/07/17 04:44:25;;;;;;;0.40;0.20;;;;;;;34.03;21.67;98923.75;5054125;28;20076;-77
2022/07/17 04:46:51;;;;;;;1.23;0.50;;;;;;;33.85;21.47;98921.75;5054954;28;20032;-78
2022/07/17 04:49:18;;;;;;;0.50;0.40;;;;;;;33.50;21.92;98926.28;5054869;28;20059;-79
2022/07/17 04:51:44;;;;;;;0.30;0.30;;;;;;;33.52;22.26;98929.44;5051699;28;20110;-79
2022/07/17 04:54:10;;;;;;;0.50;0.47;;;;;;;33.16;22.63;98930.31;5045734;28;20047;-79
2022/07/17 04:56:36;;;;;;;1.65;0.52;;;;;;;33.48;22.69;98934.50;5040542;28;20028;-78
2022/07/17 04:59:02;;;;;;;0.57;0.45;;;;;;;33.66;21.99;98930.84;5054689;28;20037;-78
2022/07/17 05:01:28;;;;;;;1.95;0.40;;;;;;;33.76;21.94;98927.50;5044023;28;20025;-79
2022/07/17 05:03:54;;;;;;;0.70;0.40;;;;;;;33.69;22.89;98929.88;5043945;28;20460;-79
2022/07/17 05:06:20;;;;;;;0.47;0.30;;;;;;;33.75;22.15;98937.28;5050058;28;20117;-79
2022/07/17 05:08:46;;;;;;;0.40;0.30;;;;;;;33.90;22.95;98938.19;5054686;28;20075;-81
2022/07/17 05:11:12;;;;;;;1.27;0.65;;;;;;;33.66;21.81;98940.19;5039575;28;20116;-81
2022/07/17 05:13:38;;;;;;;0.40;0.30;;;;;;;33.74;22.77;98938.59;5047780;28;20673;-82
2022/07/17 05:16:05;;;;;;;0.52;0.30;;;;;;;33.95;22.08;98946.09;5047023;28;20033;-80
2022/07/17 05:18:31;;;;;;;0.88;0.35;;;;;;;34.14;22.09;98946.84;5052486;28;20556;-81
2022/07/17 05:20:57;;;;;;;0.40;0.40;;;;;;;34.36;21.91;98940.81;5041459;28;20108;-81
2022/07/17 05:23:23;;;;;;;0.82;0.40;;;;;;;34.13;22.42;98950.16;5051868;28;20432;-79
2022/07/17 05:25:49;;;;;;;2.00;0.30;;;;;;;33.15;22.88;98945.00;5052804;28;20045;-80
2022/07/17 05:28:15;;;;;;;0.30;0.30;;;;;;;33.20;23.03;98948.00;5053042;28;20404;-79
2022/07/17 05:30:41;;;;;;;1.20;0.40;;;;;;;33.11;22.84;98950.06;5036589;28;20033;-80
2022/07/17 05:33:07;;;;;;;0.32;0.20;;;;;;;33.11;21.69;98950.06;5038691;28;20485;-80
2022/07/17 05:35:33;;;;;;;0.40;0.30;;;;;;;32.76;21.70;98955.25;5046407;28;20037;-80
2022/07/17 05:38:00;;;;;;;1.67;0.22;;;;;;;33.10;22.18;98954.97;5052762;28;20388;-80
2022/07/17 05:40:26;;;;;;;2.92;0.50;;;;;;;33.16;23.43;98953.09;5050061;28;20056;-79
2022/07/17 05:42:52;;;;;;;0.90;0.38;;;;;;;33.04;22.57;98965.41;5043878;28;20037;-79
2022/07/17 05:45:18;;;;;;;0.50;0.30;;;;;;;32.74;22.67;98961.41;5045362;28;20155;-80
2022/07/17 05:47:44;;;;;;;0.47;0.47;;;;;;;32.71;22.56;98961.56;5044593;28;20038;-80
2022/07/17 05:50:10;;;;;;;2.08;0.40;;;;;;;33.03;22.64;98963.03;5051675;28;20017;-79
2022/07/17 05:52:36;;;;;;;0.40;0.35;;;;;;;32.51;23.84;98964.84;5053384;28;20041;-79
2022/07/17 05:55:03;;;;;;;0.88;0.40;;;;;;;32.21;22.10;98970.59;5052206;28;20028;-79
2022/07/17 05:57:29;;;;;;;0.85;0.45;;;;;;;32.15;23.37;98964.75;5051828;28;20029;-79
2022/07/17 05:59:55;;;;;;;0.60;0.40;;;;;;;33.00;22.26;98967.59;5049696;28;20022;-79
2022/07/17 06:02:21;;;;;;;0.85;0.50;;;;;;;31.80;26.29;98971.81;5052487;28;20385;-79
2022/07/17 06:04:47;;;;;;;3.20;0.47;;;;;;;31.29;24.07;98974.97;5054118;28;20037;-79
2022/07/17 06:07:13;;;;;;;1.65;0.52;;;;;;;31.34;24.04;98980.03;5053732;28;20132;-79
2022/07/17 06:09:40;;;;;;;0.73;0.40;;;;;;;31.47;23.13;98980.00;5036541;28;20494;-79
2022/07/17 06:12:06;;;;;;;1.77;0.57;;;;;;;31.63;22.99;98984.66;5036757;28;20057;-78
2022/07/17 06:14:32;;;;;;;1.95;0.50;;;;;;;31.33;23.71;98983.34;5044247;28;20473;-79
2022/07/17 06:16:58;;;;;;;0.43;0.43;;;;;;;30.67;24.21;98982.44;5045881;28;20116;-78
2022/07/17 06:19:24;;;;;;;4.03;0.70;;;;;;;31.25;23.16;98985.63;5043280;28;20065;-79
2022/07/17 06:21:50;;;;;;;0.95;0.50;;;;;;;31.37;23.35;98989.66;5041759;28;20040;-79
2022/07/17 06:24:16;;;;;;;2.75;0.60;;;;;;;32.07;22.40;98992.66;5043996;28;20051;-79
2022/07/17 06:26:42;;;;;;;1.45;0.50;;;;;;;31.45;23.64;98996.69;5041983;28;20359;-79
2022/07/17 06:29:09;;;;;;;2.63;0.57;;;;;;;32.29;22.26;98997.47;5035156;28;20439;-79
2022/07/17 06:31:35;;;;;;;2.63;0.68;;;;;;;32.43;21.59;99003.38;5049956;28;20078;-79
2022/07/17 06:34:01;;;;;;;2.95;0.77;;;;;;;32.42;22.09;98998.13;5046974;28;20500;-79
2022/07/17 06:36:27;;;;;;;2.55;0.60;;;;;;;32.18;23.43;98999.97;5046295;28;20037;-79
2022/07/17 06:38:53;;;;;;;1.67;0.80;;;;;;;31.94;21.49;98997.63;5047691;28;20029;-79
2022/07/17 06:41:19;;;;;;;1.85;0.60;;;;;;;31.77;22.34;99007.63;5047688;28;20033;-79
2022/07/17 06:43:45;;;;;;;3.03;0.60;;;;;;;32.58;21.98;98998.69;5045537;28;20040;-78
2022/07/17 06:46:12;;;;;;;5.15;0.80;;;;;;;31.52;23.76;99004.94;5047930;28;20033;-78
2022/07/17 06:48:38;;;;;;;2.60;0.55;;;;;;;31.97;22.77;98999.53;5056046;28;20036;-79
2022/07/17 06:51:04;;;;;;;1.23;0.55;;;;;;;31.27;24.91;99007.91;5051596;28;20036;-79
2022/07/17 06:53:30;;;;;;;1.95;0.55;;;;;;;30.98;24.60;99001.66;5050933;28;20029;-79
2022/07/17 06:55:56;;;;;;;4.55;0.70;;;;;;;30.44;25.32;99011.16;5051079;28;20032;-79
2022/07/17 06:58:22;;;;;;;2.50;0.77;;;;;;;31.16;23.29;99002.59;5048174;28;20508;-78
2022/07/17 07:00:48;;;;;;;1.55;0.57;;;;;;;31.85;22.72;99008.94;5047171;28;20045;-80
2022/07/17 07:03:14;;;;;;;4.22;0.82;;;;;;;32.12;22.17;98998.97;5049042;28;20036;-79
2022/07/17 07:05:41;;;;;;;1.45;0.63;;;;;;;32.62;21.32;99004.22;5043658;28;20041;-79
2022/07/17 07:08:07;;;;;;;1.25;0.50;;;;;;;32.85;21.98;99008.53;5049978;28;20112;-79
2022/07/17 07:10:33;;;;;;;4.47;0.57;;;;;;;32.80;21.49;99004.25;5050955;28;20029;-79
2022/07/17 07:12:59;;;;;;;0.88;0.50;;;;;;;32.85;22.19;98995.09;5049732;28;20033;-80
2022/07/17 07:15:25;;;;;;;2.92;0.50;;;;;;;33.67;21.44;99007.28;5047724;28;20048;-80
2022/07/17 07:17:52;;;;;;;3.85;0.70;;;;;;;33.40;22.32;99007.28;5064997;28;20059;-80
2022/07/17 07:20:18;;;;;;;1.02;0.40;;;;;;;33.26;22.45;99010.78;5055894;28;20041;-80
2022/07/17 07:22:44;;;;;;;3.83;0.52;;;;;;;33.34;21.30;99012.84;5051011;28;20053;-79
2022/07/17 07:25:10;;;;;;;3.88;0.60;;;;;;;32.78;21.79;99009.63;5051450;28;20036;-79
2022/07/17 07:27:36;;;;;;;2.72;0.60;;;;;;;33.21;21.61;99009.34;5052542;28;20071;-80
2022/07/17 07:30:03;;;;;;;2.35;0.40;;;;;;;32.01;23.09;99013.63;5043453;28;20025;-79
2022/07/17 07:32:29;;;;;;;2.03;0.50;;;;;;;32.40;22.45;99012.03;5044767;28;20087;-80
2022/07/17 07:34:55;;;;;;;4.90;1.17;;;;;;;31.88;22.85;99012.91;5046100;28;20056;-79
2022/07/17 07:37:21;;;;;;;1.50;0.32;;;;;;;31.76;23.41;99016.63;5049820;28;20045;-80
2022/07/17 07:39:47;;;;;;;1.27;0.47;;;;;;;31.54;23.75;99010.94;5052061;28;20033;-80
2022/07/17 07:42:13;;;;;;;1.20;0.50;;;;;;;32.50;22.21;99008.78;5049397;28;20033;-79
2022/07/17 07:44:39;;;;;;;1.58;0.50;;;;;;;30.32;25.55;99005.47;5046293;28;20132;-79
2022/07/17 07:47:05;;;;;;;0.90;0.50;;;;;;;31.46;23.42;99012.47;5048962;28;20489;-80
2022/07/17 07:49:39;;;;;;;1.40;0.40;;;;;;;31.42;23.66;99008.94;5041156;28;20378;-79
2022/07/17 07:52:07;;;;;;;1.38;0.40;;;;;;;32.27;22.60;99005.66;5037954;28;20474;-80
2022/07/17 07:54:33;;;;;;;0.50;0.30;;;;;;;32.08;22.69;99005.59;5043146;28;20044;-79
2022/07/17 07:56:59;;;;;;;0.70;0.30;;;;;;;30.95;24.11;99013.94;5045067;28;20086;-79
2022/07/17 07:59:25;;;;;;;1.45;0.30;;;;;;;30.14;25.73;99011.72;5045225;28;20029;-78
2022/07/17 08:01:52;;;;;;;3.25;0.60;;;;;;;30.94;23.74;99009.50;5047890;28;20512;-78
2022/07/17 08:04:18;;;;;;;0.82;0.30;;;;;;;31.22;22.97;99012.13;5040576;28;20048;-79
2022/07/17 08:06:44;;;;;;;1.80;0.50;;;;;;;32.17;21.88;99004.84;5047479;28;20036;-78
2022/07/17 08:09:11;;;;;;;1.15;0.40;;;;;;;32.06;22.80;99013.81;5043765;28;20104;-79
2022/07/17 08:11:37;;;;;;;1.23;0.40;;;;;;;32.02;22.06;99018.06;5045330;28;20108;-80
2022/07/17 08:14:03;;;;;;;0.85;0.40;;;;;;;32.45;21.52;99014.25;5041072;28;20457;-78
2022/07/17 08:16:29;;;;;;;1.08;0.40;;;;;;;31.83;22.40;99033.38;5045829;28;20413;-79
2022/07/17 08:18:55;;;;;;;3.00;0.47;;;;;;;32.44;20.50;99024.06;5047276;28;20036;-80
2022/07/17 08:21:22;;;;;;;1.42;0.30;;;;;;;32.50;21.76;99019.34;5046194;28;20125;-81
2022/07/17 08:23:48;;;;;;;6.43;0.52;;;;;;;33.09;20.03;99033.09;5045501;28;20481;-79
2022/07/17 08:26:15;;;;;;;1.23;0.40;;;;;;;32.73;21.69;99035.84;5043830;28;20037;-79
2022/07/17 08:28:41;;;;;;;1.42;0.50;;;;;;;31.38;23.06;99042.34;5046856;28;20037;-78
2022/07/17 08:31:07;;;;;;;1.67;0.30;;;;;;;30.39;23.85;99036.44;5051143;28;20128;-79
2022/07/17 08:33:33;;;;;;;0.82;0.40;;;;;;;31.90;22.42;99050.16;5048927;28;20068;-80
2022/07/17 08:35:59;;;;;;;3.20;0.52;;;;;;;32.38;21.63;99042.97;5046292;28;20397;-79
2022/07/17 08:38:25;;;;;;;2.15;0.50;;;;;;;33.00;20.79;99035.88;5047318;28;20590;-78
2022/07/17 08:40:53;;;;;;;3.95;0.50;;;;;;;33.14;20.43;99051.59;5044890;28;20045;-78
2022/07/17 08:43:20;;;;;;;1.60;0.30;;;;;;;32.33;20.90;99052.91;5048694;28;20560;-78
2022/07/17 08:45:48;;;;;;;0.70;0.30;;;;;;;32.78;21.13;99051.50;5048497;28;20063;-78
2022/07/17 08:48:16;;;;;;;0.98;0.50;;;;;;;33.08;20.78;99042.09;5043456;28;20029;-79
2022/07/17 08:50:43;;;;;;;0.90;0.40;;;;;;;33.51;20.22;99043.84;5049186;28;20036;-78
2022/07/17 08:53:09;;;;;;;3.90;0.40;;;;;;;32.39;21.93;99051.06;5050362;28;20496;-78
2022/07/17 08:55:36;;;;;;;1.45;0.40;;;;;;;32.86;20.93;99047.88;5050001;28;20025;-78
2022/07/17 08:58:04;;;;;;;1.75;0.40;;;;;;;32.98;20.62;99044.09;5047652;28;20040;-79
2022/07/17 09:00:30;;;;;;;2.13;0.70;;;;;;;33.36;20.37;99044.47;5049011;28;20024;-78
2022/07/17 09:03:02;;;;;;;0.80;0.25;;;;;;;32.95;20.55;99042.22;5045236;28;20060;-78
2022/07/17 09:05:31;;;;;;;3.45;0.50;;;;;;;32.66;20.79;99041.84;5046119;28;20065;-78
2022/07/17 09:07:58;;;;;;;1.25;0.50;;;;;;;32.87;21.40;99049.47;5045900;28;20029;-78
2022/07/17 09:10:34;;;;;;;1.42;0.40;;;;;;;33.28;20.84;99045.28;5044421;28;20393;-78
2022/07/17 09:13:01;;;;;;;1.75;0.50;;;;;;;33.84;19.78;99047.63;5048051;28;20082;-78
2022/07/17 09:15:28;;;;;;;0.95;0.45;;;;;;;33.01;21.93;99053.75;5048454;28;20516;-78
2022/07/17 09:17:56;;;;;;;1.95;0.52;;;;;;;32.90;20.82;99062.75;5043823;28;20026;-79
2022/07/17 09:20:23;;;;;;;2.05;0.50;;;;;;;32.43;21.22;99059.44;5046570;28;20413;-78
2022/07/17 09:23:06;;;;;;;1.55;0.57;;;;;;;32.45;20.65;99056.91;5047773;28;20079;-78
2022/07/17 09:25:45;;;;;;;2.28;0.60;;;;;;;33.01;20.67;99059.44;5047022;28;20080;-78
2022/07/17 09:28:13;;;;;;;0.77;0.35;;;;;;;33.27;20.81;99058.72;5045700;28;20100;-78
2022/07/17 09:30:43;;;;;;;2.15;0.47;;;;;;;33.49;20.68;99047.16;5043431;28;20075;-79
2022/07/17 09:33:17;;;;;;;1.60;0.40;;;;;;;33.77;20.47;99045.88;5048736;28;20025;-78
2022/07/17 09:35:55;;;;;;;1.95;0.30;;;;;;;33.57;19.44;99050.50;5046711;28;20033;-78
2022/07/17 09:38:32;;;;;;;1.92;0.40;;;;;;;32.49;20.44;99052.69;5049694;28;20178;-78
2022/07/17 09:41:19;;;;;;;0.63;0.50;;;;;;;32.13;20.60;99063.09;5042213;28;20037;-78
2022/07/17 09:43:47;;;;;;;1.35;0.68;;;;;;;32.04;20.52;99061.00;5044619;28;20436;-78
2022/07/17 09:46:22;;;;;;;2.05;0.50;;;;;;;32.07;20.72;99051.53;5045930;28;20041;-78
2022/07/17 09:48:52;;;;;;;1.70;0.40;;;;;;;32.61;20.50;99051.78;5045204;28;20112;-78
2022/07/17 09:51:30;;;;;;;2.20;0.50;;;;;;;32.68;21.22;99042.16;5046241;28;20041;-78
2022/07/17 09:53:59;;;;;;;1.23;0.50;;;;;;;33.15;20.17;99045.44;5047356;28;20033;-78
2022/07/17 09:56:28;;;;;;;2.08;0.50;;;;;;;33.88;19.72;99049.03;5049186;28;20041;-79
2022/07/17 09:59:00;;;;;;;0.88;0.20;;;;;;;34.77;18.97;99030.47;5045265;28;20108;-79
2022/07/17 10:01:26;;;;;;;0.30;0.30;;;;;;;35.10;18.35;99034.09;5048456;28;20033;-79
2022/07/17 10:03:53;;;;;;;0.43;0.30;;;;;;;33.48;20.67;99045.56;5048842;28;20563;-79
2022/07/17 10:06:21;;;;;;;0.73;0.40;;;;;;;33.93;19.13;99054.09;5051233;28;20037;-79
2022/07/17 10:08:47;;;;;;;1.77;0.40;;;;;;;33.68;19.79;99059.38;5041471;28;20025;-79
2022/07/17 10:11:19;;;;;;;0.75;0.40;;;;;;;33.38;19.30;99061.88;5052829;28;20115;-79
2022/07/17 10:13:46;;;;;;;2.42;0.40;;;;;;;33.42;18.74;99050.34;5050087;28;20116;-79
2022/07/17 10:16:13;;;;;;;1.15;0.50;;;;;;;33.86;18.99;99056.47;5052206;28;20028;-78
2022/07/17 10:18:42;;;;;;;0.60;0.20;;;;;;;33.90;18.77;99060.75;5045165;28;20059;-79
2022/07/17 10:21:14;;;;;;;0.65;0.30;;;;;;;33.44;19.24;99065.66;5044834;28;20096;-79
2022/07/17 10:23:47;;;;;;;0.82;0.30;;;;;;;33.33;18.11;99058.84;5044136;28;20115;-78
2022/07/17 10:26:14;;;;;;;0.85;0.40;;;;;;;33.45;18.35;99063.59;5047669;28;20029;-78
2022/07/17 10:28:44;;;;;;;0.70;0.20;;;;;;;33.13;19.32;99056.50;5039603;28;20041;-79
2022/07/17 10:31:22;;;;;;;1.48;0.40;;;;;;;34.76;18.37;99046.81;5051519;28;20032;-79
2022/07/17 10:33:59;;;;;;;1.05;0.30;;;;;;;34.89;17.59;99058.00;5040916;28;20039;-79
2022/07/17 10:36:35;;;;;;;0.95;0.50;;;;;;;34.31;17.54;99064.91;5040858;28;20041;-79
2022/07/17 10:39:20;;;;;;;2.53;0.15;;;;;;;33.03;19.13;99066.28;5044086;28;20040;-79
2022/07/17 10:42:01;;;;;;;0.63;0.45;;;;;;;32.43;20.76;99077.28;5039657;28;20056;-79
2022/07/17 10:44:28;;;;;;;1.52;0.35;;;;;;;32.77;19.03;99072.69;5047980;28;20095;-79
2022/07/17 10:46:56;;;;;;;0.40;0.30;;;;;;;32.85;18.92;99071.13;5046868;28;20040;-79
2022/07/17 10:49:24;;;;;;;1.15;0.30;;;;;;;32.66;19.00;99070.28;5059701;28;20107;-79
2022/07/17 10:51:50;;;;;;;0.70;0.22;;;;;;;33.32;18.91;99074.38;5052344;28;20484;-79
2022/07/17 10:54:17;;;;;;;0.35;0.30;;;;;;;34.05;19.08;99058.81;5052283;28;20057;-79
2022/07/17 10:56:44;;;;;;;2.60;0.40;;;;;;;33.84;19.03;99061.88;5044011;28;20087;-80
2022/07/17 10:59:11;;;;;;;1.63;0.30;;;;;;;34.29;18.76;99066.66;5045453;28;20039;-79
2022/07/17 11:01:38;;;;;;;1.90;0.30;;;;;;;34.17;18.83;99059.13;5050613;28;20059;-79
2022/07/17 11:04:07;;;;;;;0.57;0.20;;;;;;;33.24;19.77;99061.69;5040622;28;20034;-80
2022/07/17 11:06:40;;;;;;;0.98;0.35;;;;;;;33.05;19.07;99055.22;5040173;28;20095;-79
2022/07/17 11:09:09;;;;;;;1.35;0.40;;;;;;;32.99;18.04;99067.66;5043654;28;20404;-80
2022/07/17 11:11:48;;;;;;;1.50;0.30;;;;;;;33.74;17.88;99061.09;5041038;28;20130;-79
2022/07/17 11:14:17;;;;;;;4.32;0.30;;;;;;;34.33;16.68;99056.66;5040443;28;20025;-80
2022/07/17 11:17:01;;;;;;;0.85;0.30;;;;;;;34.51;16.95;99056.59;5049106;28;20121;-80
2022/07/17 11:19:38;;;;;;;1.42;0.32;;;;;;;34.74;17.16;99055.06;5044375;28;20037;-79
2022/07/17 11:22:06;;;;;;;1.48;0.35;;;;;;;35.25;17.10;99058.53;5045365;28;20087;-79
2022/07/17 11:24:51;;;;;;;0.43;0.22;;;;;;;34.97;17.28;99050.63;5048443;28;20049;-79
2022/07/17 11:27:28;;;;;;;0.75;0.30;;;;;;;33.68;18.66;99059.38;5045574;28;22397;-79
2022/07/17 11:29:56;;;;;;;1.30;0.50;;;;;;;33.42;19.19;99056.03;5041400;28;20037;-79
2022/07/17 11:32:23;;;;;;;1.00;0.30;;;;;;;33.28;18.57;99051.75;5045982;28;20025;-78
2022/07/17 11:34:49;;;;;;;2.40;0.30;;;;;;;33.94;17.83;99055.66;5039218;28;20041;-79